RYR4201 EDDS-LIMC
Flight info
| Callsign | RYR4201 |
|---|---|
| Flight time | N/A |
| Altitude | 32000 |
| Route | ROTWE5B/25 ROTWE Y126 TUBLO N850 ODINA ODIN4X |
| Aircraft | B38M/M-SBDFGM3RWXY/LB1 |
Departure
| Time | 2026-05-05 16:29 |
|---|---|
| Airport | Stuttgart Airport (EDDS) |
Arrival
| Time | N/A |
|---|---|
| Airport | Milan Malpensa International Airport (LIMC) |
| Time | Latitude | Longitude | Altitude | Speed | Heading |
|---|---|---|---|---|---|
| 2026-05-05 16:03 | 48.68973 | 9.20357 | 1281 ft | 0 kts | 164° |
| 2026-05-05 16:13 | 48.68973 | 9.20358 | 1281 ft | 0 kts | 164° |
| 2026-05-05 16:16 | 48.68919 | 9.20392 | 1278 ft | 10 kts | 127° |
| 2026-05-05 16:16 | 48.68979 | 9.20781 | 1264 ft | 23 kts | 73° |
| 2026-05-05 16:17 | 48.69075 | 9.21281 | 1250 ft | 25 kts | 73° |
| 2026-05-05 16:17 | 48.69123 | 9.21541 | 1248 ft | 25 kts | 73° |
| 2026-05-05 16:18 | 48.69224 | 9.22068 | 1235 ft | 27 kts | 73° |
| 2026-05-05 16:18 | 48.69278 | 9.22355 | 1228 ft | 28 kts | 73° |
| 2026-05-05 16:18 | 48.69386 | 9.22927 | 1213 ft | 29 kts | 73° |
| 2026-05-05 16:19 | 48.69443 | 9.23221 | 1204 ft | 31 kts | 74° |
| 2026-05-05 16:19 | 48.69503 | 9.23540 | 1199 ft | 31 kts | 73° |
| 2026-05-05 16:19 | 48.69558 | 9.23827 | 1194 ft | 0 kts | 73° |
| 2026-05-05 16:20 | 48.69574 | 9.23912 | 1193 ft | 8 kts | 73° |
| 2026-05-05 16:20 | 48.69585 | 9.23975 | 1192 ft | 0 kts | 74° |
| 2026-05-05 16:22 | 48.69609 | 9.24112 | 1190 ft | 0 kts | 86° |
| 2026-05-05 16:23 | 48.69609 | 9.24113 | 1190 ft | 0 kts | 86° |
| 2026-05-05 16:23 | 48.69586 | 9.24219 | 1187 ft | 12 kts | 118° |
| 2026-05-05 16:24 | 48.69563 | 9.24270 | 1184 ft | 0 kts | 136° |
| 2026-05-05 16:25 | 48.69541 | 9.24295 | 1183 ft | 8 kts | 153° |
| 2026-05-05 16:26 | 48.69496 | 9.24318 | 1181 ft | 0 kts | 165° |
| 2026-05-05 16:26 | 48.69494 | 9.24319 | 1181 ft | 0 kts | 166° |
| 2026-05-05 16:27 | 48.69466 | 9.24326 | 1180 ft | 7 kts | 174° |
| 2026-05-05 16:27 | 48.69401 | 9.24296 | 1180 ft | 11 kts | 219° |
| 2026-05-05 16:27 | 48.69372 | 9.24222 | 1181 ft | 0 kts | 252° |
| 2026-05-05 16:28 | 48.69337 | 9.24043 | 1183 ft | 52 kts | 254° |
| 2026-05-05 16:29 | 48.69152 | 9.23064 | 1205 ft | 138 kts | 254° |
| 2026-05-05 16:29 | 48.68827 | 9.21364 | 1357 ft | 192 kts | 254° |
| 2026-05-05 16:29 | 48.68456 | 9.19361 | 2160 ft | 206 kts | 255° |
| 2026-05-05 16:29 | 48.68118 | 9.17274 | 3169 ft | 212 kts | 259° |
| 2026-05-05 16:30 | 48.67762 | 9.14945 | 3663 ft | 238 kts | 256° |
| 2026-05-05 16:30 | 48.67250 | 9.12458 | 4090 ft | 258 kts | 254° |
| 2026-05-05 16:30 | 48.66700 | 9.09847 | 4777 ft | 266 kts | 255° |
| 2026-05-05 16:30 | 48.66145 | 9.07091 | 4994 ft | 275 kts | 256° |
| 2026-05-05 16:31 | 48.65609 | 9.04361 | 4988 ft | 267 kts | 256° |
| 2026-05-05 16:31 | 48.65077 | 9.01681 | 4995 ft | 267 kts | 252° |
| 2026-05-05 16:31 | 48.64098 | 8.99292 | 5088 ft | 276 kts | 231° |
| 2026-05-05 16:31 | 48.62753 | 8.97214 | 5958 ft | 276 kts | 227° |
| 2026-05-05 16:32 | 48.61378 | 8.95221 | 6758 ft | 278 kts | 227° |
| 2026-05-05 16:32 | 48.59995 | 8.93231 | 7615 ft | 276 kts | 228° |
| 2026-05-05 16:32 | 48.58609 | 8.91241 | 8434 ft | 276 kts | 228° |
| 2026-05-05 16:32 | 48.57239 | 8.89275 | 9239 ft | 275 kts | 228° |
| 2026-05-05 16:33 | 48.55851 | 8.87284 | 10046 ft | 274 kts | 228° |
| 2026-05-05 16:33 | 48.54449 | 8.85266 | 10306 ft | 292 kts | 228° |
| 2026-05-05 16:33 | 48.53067 | 8.83269 | 10386 ft | 313 kts | 228° |
| 2026-05-05 16:33 | 48.51390 | 8.80859 | 10927 ft | 321 kts | 227° |
| 2026-05-05 16:34 | 48.49777 | 8.78549 | 11614 ft | 322 kts | 227° |
| 2026-05-05 16:34 | 48.48153 | 8.76228 | 12302 ft | 322 kts | 227° |
| 2026-05-05 16:34 | 48.46534 | 8.73915 | 12863 ft | 326 kts | 227° |
| 2026-05-05 16:34 | 48.44885 | 8.71562 | 13480 ft | 327 kts | 227° |
| 2026-05-05 16:35 | 48.43231 | 8.69202 | 14047 ft | 330 kts | 227° |
| 2026-05-05 16:35 | 48.41558 | 8.66818 | 14602 ft | 332 kts | 228° |
| 2026-05-05 16:35 | 48.39923 | 8.64492 | 15128 ft | 335 kts | 228° |
| 2026-05-05 16:35 | 48.38260 | 8.62127 | 15641 ft | 337 kts | 228° |
| 2026-05-05 16:36 | 48.36577 | 8.59734 | 16150 ft | 340 kts | 228° |
| 2026-05-05 16:36 | 48.34858 | 8.57295 | 16646 ft | 342 kts | 228° |
| 2026-05-05 16:36 | 48.33325 | 8.55121 | 17074 ft | 344 kts | 228° |
| 2026-05-05 16:36 | 48.31791 | 8.52948 | 17492 ft | 346 kts | 228° |